sensor_id;sensor_type;location;lat;lon;timestamp;P1;durP1;ratioP1;P2;durP2;ratioP2
68144;SDS011;55400;51.824;-0.196;2023-08-12T00:03:06;5.00;;;1.90;;
68144;SDS011;55400;51.824;-0.196;2023-08-12T00:07:06;3.60;;;1.60;;
68144;SDS011;55400;51.824;-0.196;2023-08-12T00:11:07;2.90;;;1.40;;
68144;SDS011;55400;51.824;-0.196;2023-08-12T00:15:08;3.50;;;1.70;;
68144;SDS011;55400;51.824;-0.196;2023-08-12T00:23:06;4.30;;;1.50;;
68144;SDS011;55400;51.824;-0.196;2023-08-12T00:27:06;4.20;;;1.70;;
68144;SDS011;55400;51.824;-0.196;2023-08-12T00:31:07;5.90;;;2.00;;
68144;SDS011;55400;51.824;-0.196;2023-08-12T00:35:07;3.50;;;1.60;;
68144;SDS011;55400;51.824;-0.196;2023-08-12T00:39:07;4.40;;;1.50;;
68144;SDS011;55400;51.824;-0.196;2023-08-12T00:43:06;4.00;;;1.60;;
68144;SDS011;55400;51.824;-0.196;2023-08-12T00:47:07;5.00;;;2.10;;
68144;SDS011;55400;51.824;-0.196;2023-08-12T00:51:06;4.00;;;1.70;;
68144;SDS011;55400;51.824;-0.196;2023-08-12T00:55:07;2.60;;;1.30;;
68144;SDS011;55400;51.824;-0.196;2023-08-12T00:59:07;2.70;;;1.60;;
68144;SDS011;55400;51.824;-0.196;2023-08-12T01:03:07;2.70;;;1.40;;
68144;SDS011;55400;51.824;-0.196;2023-08-12T01:07:06;3.60;;;1.80;;
68144;SDS011;55400;51.824;-0.196;2023-08-12T01:15:08;4.90;;;1.60;;
68144;SDS011;55400;51.824;-0.196;2023-08-12T01:19:10;5.10;;;1.80;;
68144;SDS011;55400;51.824;-0.196;2023-08-12T01:23:09;6.00;;;1.70;;
68144;SDS011;55400;51.824;-0.196;2023-08-12T01:27:09;5.30;;;2.20;;
68144;SDS011;55400;51.824;-0.196;2023-08-12T01:31:11;2.80;;;1.50;;
68144;SDS011;55400;51.824;-0.196;2023-08-12T01:35:11;4.70;;;1.70;;
68144;SDS011;55400;51.824;-0.196;2023-08-12T01:39:08;4.00;;;1.80;;
68144;SDS011;55400;51.824;-0.196;2023-08-12T01:43:07;3.90;;;1.70;;
68144;SDS011;55400;51.824;-0.196;2023-08-12T01:47:08;3.30;;;1.60;;
68144;SDS011;55400;51.824;-0.196;2023-08-12T01:51:07;5.10;;;2.30;;
68144;SDS011;55400;51.824;-0.196;2023-08-12T01:55:07;4.40;;;1.80;;
68144;SDS011;55400;51.824;-0.196;2023-08-12T01:59:07;2.60;;;1.40;;
68144;SDS011;55400;51.824;-0.196;2023-08-12T02:03:07;3.60;;;1.60;;
68144;SDS011;55400;51.824;-0.196;2023-08-12T02:07:07;3.40;;;1.60;;
68144;SDS011;55400;51.824;-0.196;2023-08-12T02:11:07;2.90;;;1.50;;
68144;SDS011;55400;51.824;-0.196;2023-08-12T02:15:07;3.90;;;1.70;;
68144;SDS011;55400;51.824;-0.196;2023-08-12T02:19:07;3.30;;;1.60;;
68144;SDS011;55400;51.824;-0.196;2023-08-12T02:23:07;2.90;;;1.70;;
68144;SDS011;55400;51.824;-0.196;2023-08-12T02:27:07;3.50;;;1.30;;
68144;SDS011;55400;51.824;-0.196;2023-08-12T02:31:07;3.40;;;1.60;;
68144;SDS011;55400;51.824;-0.196;2023-08-12T02:39:07;3.30;;;1.40;;
68144;SDS011;55400;51.824;-0.196;2023-08-12T02:43:07;3.30;;;1.60;;
68144;SDS011;55400;51.824;-0.196;2023-08-12T02:47:07;3.00;;;1.70;;
68144;SDS011;55400;51.824;-0.196;2023-08-12T02:51:07;3.70;;;1.50;;
68144;SDS011;55400;51.824;-0.196;2023-08-12T02:55:07;2.30;;;1.40;;
68144;SDS011;55400;51.824;-0.196;2023-08-12T02:59:07;4.50;;;1.70;;
68144;SDS011;55400;51.824;-0.196;2023-08-12T03:03:07;4.40;;;1.90;;
68144;SDS011;55400;51.824;-0.196;2023-08-12T03:07:07;4.50;;;1.60;;
68144;SDS011;55400;51.824;-0.196;2023-08-12T03:11:07;3.60;;;1.50;;
68144;SDS011;55400;51.824;-0.196;2023-08-12T03:15:08;2.80;;;1.40;;
68144;SDS011;55400;51.824;-0.196;2023-08-12T03:19:07;8.70;;;2.00;;
68144;SDS011;55400;51.824;-0.196;2023-08-12T03:23:07;3.50;;;1.60;;
68144;SDS011;55400;51.824;-0.196;2023-08-12T03:27:07;5.00;;;1.80;;
68144;SDS011;55400;51.824;-0.196;2023-08-12T03:31:07;3.00;;;1.50;;
68144;SDS011;55400;51.824;-0.196;2023-08-12T03:35:07;2.70;;;1.70;;
68144;SDS011;55400;51.824;-0.196;2023-08-12T03:39:07;2.10;;;1.50;;
68144;SDS011;55400;51.824;-0.196;2023-08-12T03:43:07;3.80;;;1.70;;
68144;SDS011;55400;51.824;-0.196;2023-08-12T03:47:07;4.60;;;1.50;;
68144;SDS011;55400;51.824;-0.196;2023-08-12T03:51:07;5.30;;;1.70;;
68144;SDS011;55400;51.824;-0.196;2023-08-12T03:55:08;3.70;;;1.50;;
68144;SDS011;55400;51.824;-0.196;2023-08-12T03:59:07;5.50;;;1.60;;
68144;SDS011;55400;51.824;-0.196;2023-08-12T04:03:07;4.00;;;1.60;;
68144;SDS011;55400;51.824;-0.196;2023-08-12T04:11:07;3.00;;;1.50;;
68144;SDS011;55400;51.824;-0.196;2023-08-12T04:15:07;4.10;;;1.60;;
68144;SDS011;55400;51.824;-0.196;2023-08-12T04:19:07;3.80;;;1.40;;
68144;SDS011;55400;51.824;-0.196;2023-08-12T04:23:07;3.90;;;1.70;;
68144;SDS011;55400;51.824;-0.196;2023-08-12T04:27:07;2.80;;;1.30;;
68144;SDS011;55400;51.824;-0.196;2023-08-12T04:31:07;5.40;;;1.30;;
68144;SDS011;55400;51.824;-0.196;2023-08-12T04:35:08;5.50;;;1.60;;
68144;SDS011;55400;51.824;-0.196;2023-08-12T04:39:07;2.40;;;1.70;;
68144;SDS011;55400;51.824;-0.196;2023-08-12T04:43:07;4.30;;;1.50;;
68144;SDS011;55400;51.824;-0.196;2023-08-12T04:47:07;3.70;;;1.50;;
68144;SDS011;55400;51.824;-0.196;2023-08-12T04:51:07;7.00;;;1.90;;
68144;SDS011;55400;51.824;-0.196;2023-08-12T04:55:08;7.30;;;1.90;;
68144;SDS011;55400;51.824;-0.196;2023-08-12T04:59:07;4.00;;;1.90;;
68144;SDS011;55400;51.824;-0.196;2023-08-12T05:03:07;4.80;;;1.90;;
68144;SDS011;55400;51.824;-0.196;2023-08-12T05:07:07;4.90;;;1.50;;
68144;SDS011;55400;51.824;-0.196;2023-08-12T05:11:07;5.60;;;1.90;;
68144;SDS011;55400;51.824;-0.196;2023-08-12T05:15:08;5.20;;;1.80;;
68144;SDS011;55400;51.824;-0.196;2023-08-12T05:19:07;6.30;;;1.80;;
68144;SDS011;55400;51.824;-0.196;2023-08-12T05:23:08;6.40;;;2.20;;
68144;SDS011;55400;51.824;-0.196;2023-08-12T05:27:07;4.50;;;1.80;;
68144;SDS011;55400;51.824;-0.196;2023-08-12T05:31:07;3.70;;;1.40;;
68144;SDS011;55400;51.824;-0.196;2023-08-12T05:35:08;5.00;;;1.90;;
68144;SDS011;55400;51.824;-0.196;2023-08-12T05:39:08;4.80;;;1.90;;
68144;SDS011;55400;51.824;-0.196;2023-08-12T05:43:07;3.60;;;1.40;;
68144;SDS011;55400;51.824;-0.196;2023-08-12T05:47:08;5.60;;;1.50;;
68144;SDS011;55400;51.824;-0.196;2023-08-12T05:51:07;5.90;;;1.80;;
68144;SDS011;55400;51.824;-0.196;2023-08-12T05:55:08;4.90;;;1.60;;
68144;SDS011;55400;51.824;-0.196;2023-08-12T05:59:07;5.60;;;1.60;;
68144;SDS011;55400;51.824;-0.196;2023-08-12T06:03:07;5.20;;;1.60;;
68144;SDS011;55400;51.824;-0.196;2023-08-12T06:07:07;5.30;;;1.80;;
68144;SDS011;55400;51.824;-0.196;2023-08-12T06:11:07;5.80;;;1.90;;
68144;SDS011;55400;51.824;-0.196;2023-08-12T06:15:08;6.30;;;1.70;;
68144;SDS011;55400;51.824;-0.196;2023-08-12T06:19:08;5.40;;;2.00;;
68144;SDS011;55400;51.824;-0.196;2023-08-12T06:23:08;5.30;;;1.80;;
68144;SDS011;55400;51.824;-0.196;2023-08-12T06:27:08;5.60;;;1.70;;
68144;SDS011;55400;51.824;-0.196;2023-08-12T06:31:07;7.60;;;2.10;;
68144;SDS011;55400;51.824;-0.196;2023-08-12T06:35:08;5.00;;;1.80;;
68144;SDS011;55400;51.824;-0.196;2023-08-12T06:39:07;6.50;;;1.90;;
68144;SDS011;55400;51.824;-0.196;2023-08-12T06:43:08;6.00;;;2.10;;
68144;SDS011;55400;51.824;-0.196;2023-08-12T06:47:07;5.30;;;1.80;;
68144;SDS011;55400;51.824;-0.196;2023-08-12T06:51:08;9.80;;;2.30;;
68144;SDS011;55400;51.824;-0.196;2023-08-12T06:55:08;4.60;;;2.10;;
68144;SDS011;55400;51.824;-0.196;2023-08-12T06:59:08;11.60;;;2.60;;
68144;SDS011;55400;51.824;-0.196;2023-08-12T07:03:08;6.20;;;2.20;;
68144;SDS011;55400;51.824;-0.196;2023-08-12T07:07:08;5.60;;;2.00;;
68144;SDS011;55400;51.824;-0.196;2023-08-12T07:11:08;7.20;;;2.30;;
68144;SDS011;55400;51.824;-0.196;2023-08-12T07:15:08;5.00;;;2.00;;
68144;SDS011;55400;51.824;-0.196;2023-08-12T07:23:08;8.50;;;2.20;;
68144;SDS011;55400;51.824;-0.196;2023-08-12T07:27:08;5.00;;;2.00;;
68144;SDS011;55400;51.824;-0.196;2023-08-12T07:31:08;7.10;;;2.10;;
68144;SDS011;55400;51.824;-0.196;2023-08-12T07:35:08;9.00;;;2.50;;
68144;SDS011;55400;51.824;-0.196;2023-08-12T07:39:08;9.00;;;2.50;;
68144;SDS011;55400;51.824;-0.196;2023-08-12T07:43:08;6.70;;;2.30;;
68144;SDS011;55400;51.824;-0.196;2023-08-12T07:47:08;6.50;;;2.50;;
68144;SDS011;55400;51.824;-0.196;2023-08-12T07:55:08;8.50;;;2.60;;
68144;SDS011;55400;51.824;-0.196;2023-08-12T07:59:08;8.30;;;2.30;;
68144;SDS011;55400;51.824;-0.196;2023-08-12T08:03:08;7.60;;;1.90;;
68144;SDS011;55400;51.824;-0.196;2023-08-12T08:07:08;5.60;;;2.10;;
68144;SDS011;55400;51.824;-0.196;2023-08-12T08:11:08;9.50;;;2.50;;
68144;SDS011;55400;51.824;-0.196;2023-08-12T08:15:08;8.80;;;2.70;;
68144;SDS011;55400;51.824;-0.196;2023-08-12T08:19:08;7.30;;;2.30;;
68144;SDS011;55400;51.824;-0.196;2023-08-12T08:23:08;5.40;;;2.00;;
68144;SDS011;55400;51.824;-0.196;2023-08-12T08:27:08;7.20;;;2.00;;
68144;SDS011;55400;51.824;-0.196;2023-08-12T08:31:08;4.30;;;1.80;;
68144;SDS011;55400;51.824;-0.196;2023-08-12T08:35:08;8.90;;;1.70;;
68144;SDS011;55400;51.824;-0.196;2023-08-12T08:39:08;6.40;;;1.90;;
68144;SDS011;55400;51.824;-0.196;2023-08-12T08:43:08;5.30;;;2.00;;
68144;SDS011;55400;51.824;-0.196;2023-08-12T08:47:08;7.20;;;2.00;;
68144;SDS011;55400;51.824;-0.196;2023-08-12T08:51:08;5.30;;;2.00;;
68144;SDS011;55400;51.824;-0.196;2023-08-12T08:55:08;5.60;;;1.80;;
68144;SDS011;55400;51.824;-0.196;2023-08-12T08:59:09;8.70;;;2.20;;
68144;SDS011;55400;51.824;-0.196;2023-08-12T09:03:09;6.90;;;2.00;;
68144;SDS011;55400;51.824;-0.196;2023-08-12T09:07:08;5.10;;;1.90;;
68144;SDS011;55400;51.824;-0.196;2023-08-12T09:11:09;6.40;;;2.30;;
68144;SDS011;55400;51.824;-0.196;2023-08-12T09:15:08;7.00;;;2.10;;
68144;SDS011;55400;51.824;-0.196;2023-08-12T09:19:08;7.60;;;1.60;;
68144;SDS011;55400;51.824;-0.196;2023-08-12T09:23:08;7.20;;;2.80;;
68144;SDS011;55400;51.824;-0.196;2023-08-12T09:27:08;5.80;;;2.40;;
68144;SDS011;55400;51.824;-0.196;2023-08-12T09:31:22;8.60;;;1.80;;
68144;SDS011;55400;51.824;-0.196;2023-08-12T09:35:15;5.80;;;1.50;;
68144;SDS011;55400;51.824;-0.196;2023-08-12T09:39:08;8.10;;;1.90;;
68144;SDS011;55400;51.824;-0.196;2023-08-12T09:43:08;5.90;;;2.10;;
68144;SDS011;55400;51.824;-0.196;2023-08-12T09:47:10;4.20;;;2.10;;
68144;SDS011;55400;51.824;-0.196;2023-08-12T09:51:08;5.00;;;1.70;;
68144;SDS011;55400;51.824;-0.196;2023-08-12T09:55:10;5.60;;;1.90;;
68144;SDS011;55400;51.824;-0.196;2023-08-12T09:59:08;4.10;;;1.60;;
68144;SDS011;55400;51.824;-0.196;2023-08-12T10:03:10;4.30;;;1.50;;
68144;SDS011;55400;51.824;-0.196;2023-08-12T10:07:09;7.10;;;2.00;;
68144;SDS011;55400;51.824;-0.196;2023-08-12T10:11:09;9.40;;;1.80;;
68144;SDS011;55400;51.824;-0.196;2023-08-12T10:15:09;5.10;;;1.40;;
68144;SDS011;55400;51.824;-0.196;2023-08-12T10:19:11;4.30;;;1.50;;
68144;SDS011;55400;51.824;-0.196;2023-08-12T10:23:12;6.10;;;1.70;;
68144;SDS011;55400;51.824;-0.196;2023-08-12T10:27:10;5.60;;;1.70;;
68144;SDS011;55400;51.824;-0.196;2023-08-12T10:31:11;6.50;;;1.70;;
68144;SDS011;55400;51.824;-0.196;2023-08-12T10:35:09;5.00;;;1.60;;
68144;SDS011;55400;51.824;-0.196;2023-08-12T10:39:08;4.40;;;1.50;;
68144;SDS011;55400;51.824;-0.196;2023-08-12T10:43:09;4.10;;;1.30;;
68144;SDS011;55400;51.824;-0.196;2023-08-12T10:47:09;3.10;;;1.20;;
68144;SDS011;55400;51.824;-0.196;2023-08-12T10:51:08;4.40;;;1.40;;
68144;SDS011;55400;51.824;-0.196;2023-08-12T10:55:16;7.50;;;2.10;;
68144;SDS011;55400;51.824;-0.196;2023-08-12T10:59:08;3.60;;;1.90;;
68144;SDS011;55400;51.824;-0.196;2023-08-12T11:03:08;6.40;;;1.60;;
68144;SDS011;55400;51.824;-0.196;2023-08-12T11:07:14;6.40;;;1.60;;
68144;SDS011;55400;51.824;-0.196;2023-08-12T11:11:19;6.30;;;1.70;;
68144;SDS011;55400;51.824;-0.196;2023-08-12T11:15:09;6.60;;;1.80;;
68144;SDS011;55400;51.824;-0.196;2023-08-12T11:19:08;7.90;;;1.80;;
68144;SDS011;55400;51.824;-0.196;2023-08-12T11:23:09;5.90;;;1.70;;
68144;SDS011;55400;51.824;-0.196;2023-08-12T11:27:09;5.50;;;1.90;;
68144;SDS011;55400;51.824;-0.196;2023-08-12T11:31:08;4.60;;;1.70;;
68144;SDS011;55400;51.824;-0.196;2023-08-12T11:35:10;4.40;;;1.50;;
68144;SDS011;55400;51.824;-0.196;2023-08-12T11:39:09;5.30;;;1.70;;
68144;SDS011;55400;51.824;-0.196;2023-08-12T11:43:08;5.40;;;1.60;;
68144;SDS011;55400;51.824;-0.196;2023-08-12T11:47:09;6.40;;;1.90;;
68144;SDS011;55400;51.824;-0.196;2023-08-12T11:51:08;5.50;;;2.10;;
68144;SDS011;55400;51.824;-0.196;2023-08-12T11:55:09;4.40;;;1.90;;
68144;SDS011;55400;51.824;-0.196;2023-08-12T11:59:09;4.00;;;1.50;;
68144;SDS011;55400;51.824;-0.196;2023-08-12T12:03:09;4.60;;;1.60;;
68144;SDS011;55400;51.824;-0.196;2023-08-12T12:07:19;3.20;;;1.10;;
68144;SDS011;55400;51.824;-0.196;2023-08-12T12:11:09;3.30;;;1.20;;
68144;SDS011;55400;51.824;-0.196;2023-08-12T12:15:08;3.70;;;1.20;;
68144;SDS011;55400;51.824;-0.196;2023-08-12T12:19:09;2.80;;;1.30;;
68144;SDS011;55400;51.824;-0.196;2023-08-12T12:23:08;4.20;;;1.30;;
68144;SDS011;55400;51.824;-0.196;2023-08-12T12:27:09;2.20;;;1.30;;
68144;SDS011;55400;51.824;-0.196;2023-08-12T12:31:08;3.90;;;1.20;;
68144;SDS011;55400;51.824;-0.196;2023-08-12T12:35:09;3.00;;;1.40;;
68144;SDS011;55400;51.824;-0.196;2023-08-12T12:39:08;4.50;;;1.20;;
68144;SDS011;55400;51.824;-0.196;2023-08-12T12:43:09;3.60;;;1.10;;
68144;SDS011;55400;51.824;-0.196;2023-08-12T12:47:09;4.30;;;1.30;;
68144;SDS011;55400;51.824;-0.196;2023-08-12T12:51:09;4.60;;;1.60;;
68144;SDS011;55400;51.824;-0.196;2023-08-12T12:55:09;4.50;;;1.40;;
68144;SDS011;55400;51.824;-0.196;2023-08-12T12:59:09;3.10;;;1.50;;
68144;SDS011;55400;51.824;-0.196;2023-08-12T13:03:09;4.50;;;1.60;;
68144;SDS011;55400;51.824;-0.196;2023-08-12T13:07:09;3.40;;;1.20;;
68144;SDS011;55400;51.824;-0.196;2023-08-12T13:11:09;5.50;;;1.30;;
68144;SDS011;55400;51.824;-0.196;2023-08-12T13:15:09;6.20;;;1.50;;
68144;SDS011;55400;51.824;-0.196;2023-08-12T13:19:09;3.10;;;1.40;;
68144;SDS011;55400;51.824;-0.196;2023-08-12T13:23:09;4.30;;;1.50;;
68144;SDS011;55400;51.824;-0.196;2023-08-12T13:27:09;5.30;;;1.40;;
68144;SDS011;55400;51.824;-0.196;2023-08-12T13:31:09;4.90;;;1.40;;
68144;SDS011;55400;51.824;-0.196;2023-08-12T13:35:09;2.50;;;1.30;;
68144;SDS011;55400;51.824;-0.196;2023-08-12T13:39:09;4.30;;;1.20;;
68144;SDS011;55400;51.824;-0.196;2023-08-12T13:43:09;2.90;;;1.00;;
68144;SDS011;55400;51.824;-0.196;2023-08-12T13:47:09;3.80;;;1.00;;
68144;SDS011;55400;51.824;-0.196;2023-08-12T13:51:09;2.20;;;1.00;;
68144;SDS011;55400;51.824;-0.196;2023-08-12T13:55:09;3.20;;;1.10;;
68144;SDS011;55400;51.824;-0.196;2023-08-12T13:59:09;3.60;;;0.80;;
68144;SDS011;55400;51.824;-0.196;2023-08-12T14:03:09;2.20;;;1.20;;
68144;SDS011;55400;51.824;-0.196;2023-08-12T14:07:09;3.50;;;1.30;;
68144;SDS011;55400;51.824;-0.196;2023-08-12T14:11:09;4.40;;;1.20;;
68144;SDS011;55400;51.824;-0.196;2023-08-12T14:15:09;5.40;;;1.50;;
68144;SDS011;55400;51.824;-0.196;2023-08-12T14:19:09;4.10;;;1.00;;
68144;SDS011;55400;51.824;-0.196;2023-08-12T14:23:09;2.10;;;1.30;;
68144;SDS011;55400;51.824;-0.196;2023-08-12T14:27:09;3.10;;;1.50;;
68144;SDS011;55400;51.824;-0.196;2023-08-12T14:31:09;2.70;;;1.10;;
68144;SDS011;55400;51.824;-0.196;2023-08-12T14:35:09;3.10;;;1.60;;
68144;SDS011;55400;51.824;-0.196;2023-08-12T14:39:09;2.80;;;1.10;;
68144;SDS011;55400;51.824;-0.196;2023-08-12T14:43:09;4.80;;;1.70;;
68144;SDS011;55400;51.824;-0.196;2023-08-12T14:47:09;4.40;;;1.20;;
68144;SDS011;55400;51.824;-0.196;2023-08-12T14:51:09;3.00;;;1.10;;
68144;SDS011;55400;51.824;-0.196;2023-08-12T14:55:09;5.60;;;1.50;;
68144;SDS011;55400;51.824;-0.196;2023-08-12T14:59:09;3.70;;;1.70;;
68144;SDS011;55400;51.824;-0.196;2023-08-12T15:03:09;4.90;;;1.60;;
68144;SDS011;55400;51.824;-0.196;2023-08-12T15:07:09;5.40;;;1.70;;
68144;SDS011;55400;51.824;-0.196;2023-08-12T15:11:09;5.90;;;1.80;;
68144;SDS011;55400;51.824;-0.196;2023-08-12T15:15:09;4.90;;;1.60;;
68144;SDS011;55400;51.824;-0.196;2023-08-12T15:19:09;5.60;;;1.50;;
68144;SDS011;55400;51.824;-0.196;2023-08-12T15:23:09;5.10;;;1.40;;
68144;SDS011;55400;51.824;-0.196;2023-08-12T15:27:09;4.00;;;1.60;;
68144;SDS011;55400;51.824;-0.196;2023-08-12T15:31:10;4.50;;;1.60;;
68144;SDS011;55400;51.824;-0.196;2023-08-12T15:35:09;6.00;;;1.70;;
68144;SDS011;55400;51.824;-0.196;2023-08-12T15:39:11;4.60;;;1.70;;
68144;SDS011;55400;51.824;-0.196;2023-08-12T15:43:09;4.80;;;1.30;;
68144;SDS011;55400;51.824;-0.196;2023-08-12T15:47:09;4.70;;;1.20;;
68144;SDS011;55400;51.824;-0.196;2023-08-12T15:51:09;6.40;;;2.00;;
68144;SDS011;55400;51.824;-0.196;2023-08-12T15:55:09;4.20;;;1.30;;
68144;SDS011;55400;51.824;-0.196;2023-08-12T15:59:09;3.90;;;1.50;;
68144;SDS011;55400;51.824;-0.196;2023-08-12T16:03:09;6.10;;;1.70;;
68144;SDS011;55400;51.824;-0.196;2023-08-12T16:07:09;4.10;;;1.60;;
68144;SDS011;55400;51.824;-0.196;2023-08-12T16:11:09;4.00;;;1.20;;
68144;SDS011;55400;51.824;-0.196;2023-08-12T16:15:09;4.20;;;1.30;;
68144;SDS011;55400;51.824;-0.196;2023-08-12T16:19:09;5.30;;;1.80;;
68144;SDS011;55400;51.824;-0.196;2023-08-12T16:23:09;5.20;;;1.50;;
68144;SDS011;55400;51.824;-0.196;2023-08-12T16:27:09;3.90;;;1.60;;
68144;SDS011;55400;51.824;-0.196;2023-08-12T16:31:09;3.20;;;1.40;;
68144;SDS011;55400;51.824;-0.196;2023-08-12T16:35:09;6.10;;;1.30;;
68144;SDS011;55400;51.824;-0.196;2023-08-12T16:39:09;4.70;;;1.50;;
68144;SDS011;55400;51.824;-0.196;2023-08-12T16:43:09;5.30;;;1.70;;
68144;SDS011;55400;51.824;-0.196;2023-08-12T16:51:10;4.40;;;1.90;;
68144;SDS011;55400;51.824;-0.196;2023-08-12T16:55:09;3.50;;;1.30;;
68144;SDS011;55400;51.824;-0.196;2023-08-12T16:59:09;4.80;;;1.60;;
68144;SDS011;55400;51.824;-0.196;2023-08-12T17:03:09;5.80;;;1.60;;
68144;SDS011;55400;51.824;-0.196;2023-08-12T17:07:09;6.30;;;1.50;;
68144;SDS011;55400;51.824;-0.196;2023-08-12T17:11:09;5.20;;;1.70;;
68144;SDS011;55400;51.824;-0.196;2023-08-12T17:15:10;4.70;;;1.60;;
68144;SDS011;55400;51.824;-0.196;2023-08-12T17:19:09;4.60;;;1.30;;
68144;SDS011;55400;51.824;-0.196;2023-08-12T17:23:09;4.50;;;1.30;;
68144;SDS011;55400;51.824;-0.196;2023-08-12T17:27:09;3.60;;;1.20;;
68144;SDS011;55400;51.824;-0.196;2023-08-12T17:31:10;2.30;;;1.30;;
68144;SDS011;55400;51.824;-0.196;2023-08-12T17:35:09;3.50;;;1.30;;
68144;SDS011;55400;51.824;-0.196;2023-08-12T17:39:09;4.50;;;1.30;;
68144;SDS011;55400;51.824;-0.196;2023-08-12T17:43:09;3.70;;;1.40;;
68144;SDS011;55400;51.824;-0.196;2023-08-12T17:47:09;2.10;;;1.20;;
68144;SDS011;55400;51.824;-0.196;2023-08-12T17:51:09;1.30;;;0.80;;
68144;SDS011;55400;51.824;-0.196;2023-08-12T17:55:10;2.80;;;1.30;;
68144;SDS011;55400;51.824;-0.196;2023-08-12T17:59:09;4.10;;;1.00;;
68144;SDS011;55400;51.824;-0.196;2023-08-12T18:03:10;3.00;;;1.10;;
68144;SDS011;55400;51.824;-0.196;2023-08-12T18:07:10;4.80;;;1.10;;
68144;SDS011;55400;51.824;-0.196;2023-08-12T18:11:10;4.70;;;1.20;;
68144;SDS011;55400;51.824;-0.196;2023-08-12T18:15:09;1.70;;;0.90;;
68144;SDS011;55400;51.824;-0.196;2023-08-12T18:19:10;3.40;;;1.30;;
68144;SDS011;55400;51.824;-0.196;2023-08-12T18:23:10;5.50;;;1.40;;
68144;SDS011;55400;51.824;-0.196;2023-08-12T18:27:10;5.10;;;1.10;;
68144;SDS011;55400;51.824;-0.196;2023-08-12T18:31:10;3.60;;;1.00;;
68144;SDS011;55400;51.824;-0.196;2023-08-12T18:35:10;3.90;;;1.30;;
68144;SDS011;55400;51.824;-0.196;2023-08-12T18:39:10;3.10;;;1.40;;
68144;SDS011;55400;51.824;-0.196;2023-08-12T18:43:10;3.00;;;1.10;;
68144;SDS011;55400;51.824;-0.196;2023-08-12T18:47:10;3.00;;;1.00;;
68144;SDS011;55400;51.824;-0.196;2023-08-12T18:51:10;3.80;;;1.20;;
68144;SDS011;55400;51.824;-0.196;2023-08-12T18:55:10;2.40;;;0.90;;
68144;SDS011;55400;51.824;-0.196;2023-08-12T18:59:10;3.70;;;1.50;;
68144;SDS011;55400;51.824;-0.196;2023-08-12T19:07:10;6.50;;;1.40;;
68144;SDS011;55400;51.824;-0.196;2023-08-12T19:11:10;2.40;;;1.20;;
68144;SDS011;55400;51.824;-0.196;2023-08-12T19:15:10;3.50;;;1.20;;
68144;SDS011;55400;51.824;-0.196;2023-08-12T19:23:10;4.10;;;1.30;;
68144;SDS011;55400;51.824;-0.196;2023-08-12T19:27:10;4.00;;;1.20;;
68144;SDS011;55400;51.824;-0.196;2023-08-12T19:31:11;3.90;;;1.20;;
68144;SDS011;55400;51.824;-0.196;2023-08-12T19:35:10;6.30;;;1.30;;
68144;SDS011;55400;51.824;-0.196;2023-08-12T19:39:10;3.10;;;0.90;;
68144;SDS011;55400;51.824;-0.196;2023-08-12T19:43:10;3.30;;;1.30;;
68144;SDS011;55400;51.824;-0.196;2023-08-12T19:47:10;5.40;;;1.60;;
68144;SDS011;55400;51.824;-0.196;2023-08-12T19:51:10;4.10;;;1.60;;
68144;SDS011;55400;51.824;-0.196;2023-08-12T19:59:10;3.90;;;1.40;;
68144;SDS011;55400;51.824;-0.196;2023-08-12T20:03:10;3.00;;;1.30;;
68144;SDS011;55400;51.824;-0.196;2023-08-12T20:07:10;3.50;;;1.00;;
68144;SDS011;55400;51.824;-0.196;2023-08-12T20:11:10;4.20;;;1.20;;
68144;SDS011;55400;51.824;-0.196;2023-08-12T20:15:10;2.90;;;1.00;;
68144;SDS011;55400;51.824;-0.196;2023-08-12T20:19:10;3.00;;;1.00;;
68144;SDS011;55400;51.824;-0.196;2023-08-12T20:23:10;3.70;;;1.40;;
68144;SDS011;55400;51.824;-0.196;2023-08-12T20:27:10;2.90;;;1.60;;
68144;SDS011;55400;51.824;-0.196;2023-08-12T20:31:10;5.50;;;1.40;;
68144;SDS011;55400;51.824;-0.196;2023-08-12T20:35:10;2.40;;;1.10;;
68144;SDS011;55400;51.824;-0.196;2023-08-12T20:39:10;6.20;;;1.50;;
68144;SDS011;55400;51.824;-0.196;2023-08-12T20:43:10;2.20;;;1.00;;
68144;SDS011;55400;51.824;-0.196;2023-08-12T20:47:10;2.50;;;1.00;;
68144;SDS011;55400;51.824;-0.196;2023-08-12T20:51:10;3.80;;;1.10;;
68144;SDS011;55400;51.824;-0.196;2023-08-12T20:55:10;2.40;;;1.10;;
68144;SDS011;55400;51.824;-0.196;2023-08-12T20:59:10;1.60;;;1.00;;
68144;SDS011;55400;51.824;-0.196;2023-08-12T21:03:10;2.10;;;1.00;;
68144;SDS011;55400;51.824;-0.196;2023-08-12T21:07:10;1.80;;;1.00;;
68144;SDS011;55400;51.824;-0.196;2023-08-12T21:11:10;3.20;;;1.00;;
68144;SDS011;55400;51.824;-0.196;2023-08-12T21:19:10;3.70;;;1.30;;
68144;SDS011;55400;51.824;-0.196;2023-08-12T21:23:10;3.40;;;1.30;;
68144;SDS011;55400;51.824;-0.196;2023-08-12T21:27:10;2.80;;;1.40;;
68144;SDS011;55400;51.824;-0.196;2023-08-12T21:31:10;2.00;;;1.10;;
68144;SDS011;55400;51.824;-0.196;2023-08-12T21:35:10;4.00;;;1.40;;
68144;SDS011;55400;51.824;-0.196;2023-08-12T21:39:10;3.10;;;1.10;;
68144;SDS011;55400;51.824;-0.196;2023-08-12T21:43:10;2.60;;;1.40;;
68144;SDS011;55400;51.824;-0.196;2023-08-12T21:47:10;4.80;;;1.60;;
68144;SDS011;55400;51.824;-0.196;2023-08-12T21:51:11;3.50;;;1.30;;
68144;SDS011;55400;51.824;-0.196;2023-08-12T21:55:10;3.90;;;1.50;;
68144;SDS011;55400;51.824;-0.196;2023-08-12T21:59:10;3.50;;;1.10;;
68144;SDS011;55400;51.824;-0.196;2023-08-12T22:03:10;4.20;;;1.30;;
68144;SDS011;55400;51.824;-0.196;2023-08-12T22:07:10;3.10;;;1.50;;
68144;SDS011;55400;51.824;-0.196;2023-08-12T22:11:10;3.30;;;1.30;;
68144;SDS011;55400;51.824;-0.196;2023-08-12T22:15:10;4.20;;;1.20;;
68144;SDS011;55400;51.824;-0.196;2023-08-12T22:19:10;2.90;;;1.20;;
68144;SDS011;55400;51.824;-0.196;2023-08-12T22:23:10;3.30;;;1.30;;
68144;SDS011;55400;51.824;-0.196;2023-08-12T22:27:10;5.60;;;1.30;;
68144;SDS011;55400;51.824;-0.196;2023-08-12T22:31:10;5.00;;;1.40;;
68144;SDS011;55400;51.824;-0.196;2023-08-12T22:35:10;3.10;;;1.00;;
68144;SDS011;55400;51.824;-0.196;2023-08-12T22:39:10;3.90;;;1.10;;
68144;SDS011;55400;51.824;-0.196;2023-08-12T22:43:10;3.00;;;1.20;;
68144;SDS011;55400;51.824;-0.196;2023-08-12T22:47:10;3.50;;;0.90;;
68144;SDS011;55400;51.824;-0.196;2023-08-12T22:51:10;5.50;;;1.20;;
68144;SDS011;55400;51.824;-0.196;2023-08-12T22:55:11;2.80;;;1.10;;
68144;SDS011;55400;51.824;-0.196;2023-08-12T22:59:10;4.60;;;1.40;;
68144;SDS011;55400;51.824;-0.196;2023-08-12T23:03:10;3.00;;;1.10;;
68144;SDS011;55400;51.824;-0.196;2023-08-12T23:07:10;2.50;;;1.10;;
68144;SDS011;55400;51.824;-0.196;2023-08-12T23:11:10;3.50;;;1.00;;
68144;SDS011;55400;51.824;-0.196;2023-08-12T23:15:11;3.60;;;1.30;;
68144;SDS011;55400;51.824;-0.196;2023-08-12T23:19:11;3.80;;;1.10;;
68144;SDS011;55400;51.824;-0.196;2023-08-12T23:23:10;4.50;;;1.20;;
68144;SDS011;55400;51.824;-0.196;2023-08-12T23:27:10;7.60;;;1.60;;
68144;SDS011;55400;51.824;-0.196;2023-08-12T23:31:10;5.30;;;1.50;;
68144;SDS011;55400;51.824;-0.196;2023-08-12T23:35:11;4.20;;;1.30;;
68144;SDS011;55400;51.824;-0.196;2023-08-12T23:39:10;4.60;;;1.20;;
68144;SDS011;55400;51.824;-0.196;2023-08-12T23:47:11;4.50;;;1.00;;
68144;SDS011;55400;51.824;-0.196;2023-08-12T23:55:11;3.40;;;1.40;;
68144;SDS011;55400;51.824;-0.196;2023-08-12T23:59:10;6.30;;;1.40;;
